createdAt,value
2022-08-30T00:01:05.347Z,4.57
2022-08-30T00:03:41.670Z,3.92
2022-08-30T00:06:09.912Z,4.00
2022-08-30T00:08:37.689Z,6.82
2022-08-30T00:11:06.375Z,5.88
2022-08-30T00:13:33.097Z,4.43
2022-08-30T00:15:59.788Z,7.30
2022-08-30T00:18:26.486Z,5.95
2022-08-30T00:20:53.228Z,6.20
2022-08-30T00:23:20.121Z,4.65
2022-08-30T00:25:47.245Z,6.05
2022-08-30T00:28:14.669Z,4.30
2022-08-30T00:30:42.017Z,5.78
2022-08-30T00:33:09.523Z,4.60
2022-08-30T00:35:36.794Z,5.15
2022-08-30T00:38:03.579Z,6.22
2022-08-30T00:40:30.930Z,5.55
2022-08-30T00:43:00.015Z,4.68
2022-08-30T00:45:35.631Z,5.38
2022-08-30T00:48:02.965Z,8.43
2022-08-30T00:50:34.565Z,7.95
2022-08-30T00:53:05.985Z,5.70
2022-08-30T00:55:33.389Z,3.45
2022-08-30T00:58:03.945Z,6.78
2022-08-30T01:00:32.275Z,5.82
2022-08-30T01:02:59.032Z,4.80
2022-08-30T01:05:25.887Z,7.40
2022-08-30T01:07:52.756Z,4.30
2022-08-30T01:10:19.943Z,9.02
2022-08-30T01:12:47.614Z,5.75
2022-08-30T01:15:15.207Z,8.73
2022-08-30T01:17:44.311Z,8.55
2022-08-30T01:20:17.318Z,4.50
2022-08-30T01:22:50.084Z,4.90
2022-08-30T01:25:20.967Z,4.78
2022-08-30T01:27:53.441Z,5.32
2022-08-30T01:30:20.385Z,6.65
2022-08-30T01:32:47.907Z,9.18
2022-08-30T01:35:17.488Z,6.05
2022-08-30T01:37:45.217Z,3.80
2022-08-30T01:40:14.622Z,5.25
2022-08-30T01:42:41.407Z,7.50
2022-08-30T01:45:09.447Z,9.43
2022-08-30T01:47:36.240Z,7.70
2022-08-30T01:50:05.545Z,4.95
2022-08-30T01:52:32.310Z,3.33
2022-08-30T01:54:59.097Z,4.07
2022-08-30T01:57:28.592Z,7.80
2022-08-30T01:59:55.580Z,5.07
2022-08-30T02:02:26.949Z,6.93
2022-08-30T02:04:54.566Z,5.47
2022-08-30T02:07:23.131Z,4.30
2022-08-30T02:09:51.341Z,5.30
2022-08-30T02:12:18.533Z,6.38
2022-08-30T02:14:45.420Z,5.13
2022-08-30T02:17:14.719Z,10.13
2022-08-30T02:19:42.100Z,4.55
2022-08-30T02:22:09.237Z,4.53
2022-08-30T02:24:35.950Z,5.10
2022-08-30T02:27:02.758Z,3.70
2022-08-30T02:29:29.802Z,5.60
2022-08-30T02:31:56.504Z,3.92
2022-08-30T02:34:23.628Z,5.72
2022-08-30T02:36:50.501Z,10.35
2022-08-30T02:39:17.310Z,4.68
2022-08-30T02:41:44.157Z,10.57
2022-08-30T02:44:11.553Z,4.47
2022-08-30T02:46:38.720Z,5.50
2022-08-30T02:51:52.598Z,5.88
2022-08-30T02:54:21.826Z,5.15
2022-08-30T02:56:49.860Z,8.85
2022-08-30T02:59:18.108Z,7.43
2022-08-30T03:01:45.464Z,4.22
2022-08-30T03:04:12.222Z,6.93
2022-08-30T03:06:38.897Z,6.43
2022-08-30T03:09:05.555Z,7.30
2022-08-30T03:11:32.352Z,5.57
2022-08-30T03:13:59.418Z,5.88
2022-08-30T03:16:26.189Z,6.43
2022-08-30T03:18:52.806Z,4.30
2022-08-30T03:21:19.505Z,5.70
2022-08-30T03:23:46.220Z,6.28
2022-08-30T03:26:14.814Z,4.82
2022-08-30T03:28:43.079Z,7.93
2022-08-30T03:31:10.460Z,4.50
2022-08-30T03:33:40.014Z,4.80
2022-08-30T03:36:08.675Z,4.00
2022-08-30T03:38:36.244Z,7.78
2022-08-30T03:41:04.247Z,3.50
2022-08-30T03:43:33.397Z,4.80
2022-08-30T03:46:01.305Z,6.07
2022-08-30T03:48:28.754Z,5.88
2022-08-30T03:50:56.057Z,10.65
2022-08-30T03:53:24.345Z,5.22
2022-08-30T03:55:54.307Z,5.45
2022-08-30T03:58:22.238Z,12.13
2022-08-30T04:00:49.471Z,4.40
2022-08-30T04:03:16.537Z,4.32
2022-08-30T04:05:43.446Z,5.60
2022-08-30T04:08:10.116Z,7.18
2022-08-30T04:10:37.031Z,7.63
2022-08-30T04:13:03.696Z,3.88
2022-08-30T04:15:30.321Z,4.10
2022-08-30T04:17:57.313Z,6.32
2022-08-30T04:20:23.937Z,13.10
2022-08-30T04:22:51.661Z,9.27
2022-08-30T04:25:18.698Z,6.32
2022-08-30T04:27:46.264Z,7.10
2022-08-30T04:30:15.008Z,4.82
2022-08-30T04:32:42.052Z,6.30
2022-08-30T04:35:10.056Z,4.10
2022-08-30T04:37:38.214Z,5.63
2022-08-30T04:40:06.245Z,7.15
2022-08-30T04:42:34.830Z,8.80
2022-08-30T04:45:04.477Z,6.88
2022-08-30T04:47:31.609Z,8.88
2022-08-30T04:49:58.663Z,8.02
2022-08-30T04:52:25.369Z,8.07
2022-08-30T04:54:58.970Z,9.35
2022-08-30T04:57:27.247Z,10.23
2022-08-30T04:59:54.776Z,9.35
2022-08-30T05:02:21.957Z,9.40
2022-08-30T05:05:07.032Z,6.88
2022-08-30T05:07:33.777Z,7.18
2022-08-30T05:10:00.467Z,9.95
2022-08-30T05:12:27.685Z,9.85
2022-08-30T05:14:54.389Z,9.80
2022-08-30T05:17:21.000Z,5.57
2022-08-30T05:19:47.617Z,10.55
2022-08-30T05:22:14.256Z,5.85
2022-08-30T05:24:41.040Z,6.13
2022-08-30T05:27:09.207Z,7.25
2022-08-30T05:29:35.871Z,7.35
2022-08-30T05:32:02.724Z,10.10
2022-08-30T05:34:30.552Z,10.35
2022-08-30T05:36:57.256Z,23.42
2022-08-30T05:39:23.945Z,20.63
2022-08-30T05:41:50.581Z,24.60
2022-08-30T05:44:17.242Z,18.40
2022-08-30T05:46:46.203Z,28.77
2022-08-30T05:49:13.257Z,25.73
2022-08-30T05:51:42.966Z,31.63
2022-08-30T05:54:12.681Z,24.52
2022-08-30T05:56:40.615Z,17.38
2022-08-30T05:59:09.130Z,14.07
2022-08-30T06:01:39.786Z,19.02
2022-08-30T06:04:08.517Z,14.88
2022-08-30T06:06:37.209Z,20.80
2022-08-30T06:09:05.866Z,14.10
2022-08-30T06:11:34.063Z,11.77
2022-08-30T06:14:01.588Z,13.95
2022-08-30T06:16:29.208Z,14.35
2022-08-30T06:18:57.968Z,10.32
2022-08-30T06:21:27.887Z,13.95
2022-08-30T06:23:55.470Z,11.82
2022-08-30T06:26:23.142Z,11.35
2022-08-30T06:28:50.491Z,11.23
2022-08-30T06:31:19.389Z,8.80
2022-08-30T06:33:47.479Z,10.25
2022-08-30T06:36:17.862Z,13.20
2022-08-30T06:38:45.574Z,11.55
2022-08-30T06:41:15.670Z,9.57
2022-08-30T06:43:46.737Z,8.07
2022-08-30T06:46:19.755Z,8.18
2022-08-30T06:48:48.359Z,9.18
2022-08-30T06:51:19.092Z,10.27
2022-08-30T06:53:47.129Z,18.88
2022-08-30T06:56:16.754Z,28.52
2022-08-30T06:58:43.868Z,21.85
2022-08-30T07:01:15.576Z,22.75
2022-08-30T07:03:42.333Z,10.77
2022-08-30T07:06:09.529Z,47.92
2022-08-30T07:08:36.848Z,17.83
2022-08-30T07:11:05.536Z,9.32
2022-08-30T07:13:32.539Z,14.93
2022-08-30T07:15:59.349Z,11.35
2022-08-30T07:18:44.787Z,13.15
2022-08-30T07:21:15.241Z,23.42
2022-08-30T07:23:48.343Z,12.77
2022-08-30T07:26:21.766Z,17.73
2022-08-30T07:28:49.003Z,11.10
2022-08-30T07:31:23.045Z,13.07
2022-08-30T07:33:49.893Z,9.63
2022-08-30T07:36:17.653Z,11.50
2022-08-30T07:38:45.930Z,10.90
2022-08-30T07:41:26.202Z,15.07
2022-08-30T07:43:53.673Z,11.10
2022-08-30T07:46:21.005Z,12.68
2022-08-30T07:48:48.372Z,12.48
2022-08-30T07:51:18.581Z,13.15
2022-08-30T07:53:45.762Z,7.65
2022-08-30T07:56:13.218Z,9.25
2022-08-30T07:58:39.937Z,10.60
2022-08-30T08:01:08.626Z,22.02
2022-08-30T08:03:35.754Z,35.40
2022-08-30T08:06:05.790Z,16.35
2022-08-30T08:08:33.272Z,10.63
2022-08-30T08:11:16.425Z,17.13
2022-08-30T08:13:52.864Z,19.08
2022-08-30T08:16:26.158Z,12.57
2022-08-30T08:18:53.954Z,40.72
2022-08-30T08:21:22.688Z,36.85
2022-08-30T08:23:49.774Z,29.10
2022-08-30T08:26:16.657Z,17.38
2022-08-30T08:28:44.924Z,18.90
2022-08-30T08:31:27.159Z,18.20
2022-08-30T08:36:30.145Z,40.50
2022-08-30T08:38:56.820Z,68.00
2022-08-30T08:41:49.721Z,57.00
2022-08-30T08:44:34.630Z,23.58
2022-08-30T08:47:16.948Z,12.98
2022-08-30T08:49:46.220Z,12.23
2022-08-30T08:52:38.831Z,12.00
2022-08-30T08:55:10.270Z,12.20
2022-08-30T08:57:38.099Z,14.32
2022-08-30T09:00:11.287Z,7.97
2022-08-30T09:02:57.057Z,12.98
2022-08-30T09:05:27.750Z,7.68
2022-08-30T09:08:05.510Z,12.55
2022-08-30T09:10:49.983Z,7.53
2022-08-30T09:13:19.081Z,13.38
2022-08-30T09:15:47.388Z,6.43
2022-08-30T09:18:19.594Z,9.10
2022-08-30T09:20:51.493Z,5.45
2022-08-30T09:23:29.932Z,10.98
2022-08-30T09:26:05.378Z,9.93
2022-08-30T09:28:47.035Z,4.45
2022-08-30T09:31:22.570Z,6.30
2022-08-30T09:34:05.095Z,5.68
2022-08-30T09:36:40.843Z,6.57
2022-08-30T09:39:30.194Z,6.28
2022-08-30T09:42:20.934Z,7.22
2022-08-30T09:44:47.672Z,7.50
2022-08-30T09:47:27.753Z,8.50
2022-08-30T09:50:14.128Z,8.73
2022-08-30T09:53:01.959Z,5.90
2022-08-30T09:55:35.061Z,8.10
2022-08-30T09:58:17.338Z,8.57
2022-08-30T10:00:58.227Z,7.88
2022-08-30T10:03:40.524Z,20.98
2022-08-30T10:06:16.531Z,15.73
2022-08-30T10:09:07.920Z,22.65
2022-08-30T10:11:56.595Z,17.02
2022-08-30T10:14:51.049Z,17.50
2022-08-30T10:17:38.994Z,9.95
2022-08-30T10:20:12.318Z,19.80
2022-08-30T10:22:48.384Z,18.77
2022-08-30T10:25:23.413Z,13.00
2022-08-30T10:27:53.740Z,15.20
2022-08-30T10:30:20.604Z,10.23
2022-08-30T10:33:00.847Z,10.30
2022-08-30T10:35:39.178Z,7.80
2022-08-30T10:38:13.703Z,11.38
2022-08-30T10:41:06.128Z,6.63
2022-08-30T10:44:08.167Z,10.02
2022-08-30T10:47:02.720Z,4.72
2022-08-30T10:49:35.223Z,8.30
2022-08-30T10:52:26.168Z,8.93
2022-08-30T10:55:22.981Z,4.13
2022-08-30T10:57:51.158Z,7.35
2022-08-30T11:00:28.916Z,7.03
2022-08-30T11:02:58.656Z,6.30
2022-08-30T11:05:31.740Z,5.57
2022-08-30T11:08:22.899Z,6.45
2022-08-30T11:11:05.126Z,7.38
2022-08-30T11:13:35.793Z,5.10
2022-08-30T11:16:09.875Z,6.75
2022-08-30T11:18:53.243Z,4.15
2022-08-30T11:21:38.745Z,5.03
2022-08-30T11:24:11.744Z,10.10
2022-08-30T11:26:50.857Z,6.97
2022-08-30T11:29:35.915Z,6.93
2022-08-30T11:32:11.921Z,4.45
2022-08-30T11:34:44.840Z,6.63
2022-08-30T11:37:30.352Z,5.90
2022-08-30T11:42:49.143Z,7.07
2022-08-30T11:45:22.078Z,6.22
2022-08-30T11:47:53.357Z,9.05
2022-08-30T11:50:33.669Z,4.63
2022-08-30T11:53:44.634Z,4.65
2022-08-30T11:56:21.196Z,17.58
2022-08-30T11:58:57.459Z,80.40
2022-08-30T12:01:52.060Z,50.80
2022-08-30T12:04:17.266Z,23.10
2022-08-30T12:06:51.569Z,8.63
2022-08-30T12:09:18.208Z,10.23
2022-08-30T12:12:02.284Z,66.00
2022-08-30T12:14:47.331Z,24.02
2022-08-30T12:17:47.288Z,25.50
2022-08-30T12:20:40.450Z,10.52
2022-08-30T12:23:23.294Z,5.43
2022-08-30T12:25:50.321Z,40.75
2022-08-30T12:28:23.997Z,6.53
2022-08-30T12:30:51.374Z,14.32
2022-08-30T12:33:41.192Z,4.43
2022-08-30T12:36:13.005Z,5.38
2022-08-30T12:38:40.848Z,10.68
2022-08-30T12:41:08.037Z,4.88
2022-08-30T12:43:47.594Z,5.32
2022-08-30T12:46:17.667Z,3.90
2022-08-30T12:48:45.236Z,7.03
2022-08-30T12:51:42.053Z,6.65
2022-08-30T12:54:19.273Z,24.38
2022-08-30T12:57:13.989Z,9.80
2022-08-30T12:59:54.254Z,52.40
2022-08-30T13:02:46.826Z,6.95
2022-08-30T13:05:34.272Z,7.88
2022-08-30T13:08:21.283Z,42.75
2022-08-30T13:11:10.726Z,85.38
2022-08-30T13:13:44.730Z,30.98
2022-08-30T13:16:20.627Z,23.02
2022-08-30T13:18:53.368Z,58.70
2022-08-30T13:21:31.989Z,23.33
2022-08-30T13:24:04.179Z,9.77
2022-08-30T13:26:35.248Z,7.35
2022-08-30T13:29:05.567Z,5.38
2022-08-30T13:31:37.536Z,4.18
2022-08-30T13:34:04.966Z,5.53
2022-08-30T13:36:35.392Z,6.85
2022-08-30T13:39:03.116Z,6.28
2022-08-30T13:41:33.942Z,3.70
2022-08-30T13:44:12.924Z,5.03
2022-08-30T13:46:44.074Z,3.13
2022-08-30T13:52:20.821Z,5.20
2022-08-30T13:54:56.290Z,6.25
2022-08-30T14:00:19.126Z,3.55
2022-08-30T14:02:54.532Z,3.83
2022-08-30T14:06:00.400Z,8.05
2022-08-30T14:08:47.797Z,4.30
2022-08-30T14:11:19.295Z,5.93
2022-08-30T14:16:36.151Z,7.20
2022-08-30T14:19:02.930Z,6.70
2022-08-30T14:21:30.214Z,4.78
2022-08-30T14:23:58.682Z,5.80
2022-08-30T14:26:32.353Z,9.32
2022-08-30T14:29:04.773Z,4.47
2022-08-30T14:31:32.830Z,9.05
2022-08-30T14:34:04.231Z,25.33
2022-08-30T14:36:33.287Z,55.10
2022-08-30T14:39:00.636Z,31.40
2022-08-30T14:41:27.687Z,23.23
2022-08-30T14:43:54.377Z,56.75
2022-08-30T14:47:36.396Z,58.50
2022-08-30T14:50:04.796Z,32.38
2022-08-30T14:52:32.712Z,35.85
2022-08-30T14:55:08.621Z,13.30
2022-08-30T14:57:38.584Z,13.75
2022-08-30T15:00:09.125Z,6.28
2022-08-30T15:02:35.994Z,4.30
2022-08-30T15:05:02.838Z,7.00
2022-08-30T15:07:33.725Z,3.60
2022-08-30T15:10:00.315Z,5.43
2022-08-30T15:12:29.625Z,5.25
2022-08-30T15:14:56.223Z,3.75
2022-08-30T15:17:22.953Z,4.90
2022-08-30T15:19:49.733Z,4.78
2022-08-30T15:22:16.969Z,4.00
2022-08-30T15:24:43.638Z,7.80
2022-08-30T15:27:15.581Z,43.70
2022-08-30T15:29:42.183Z,78.88
2022-08-30T15:32:09.047Z,38.53
2022-08-30T15:34:36.064Z,31.13
2022-08-30T15:37:03.887Z,38.10
2022-08-30T15:39:31.095Z,15.60
2022-08-30T15:42:00.985Z,41.25
2022-08-30T15:44:29.932Z,8.95
2022-08-30T15:46:56.794Z,6.93
2022-08-30T15:58:25.258Z,7.00
2022-08-30T16:00:53.014Z,3.45
2022-08-30T16:03:19.964Z,3.80
2022-08-30T16:05:46.735Z,3.40
2022-08-30T16:08:13.624Z,3.63
2022-08-30T16:10:43.227Z,4.32
2022-08-30T16:13:10.114Z,4.53
2022-08-30T16:15:39.731Z,3.33
2022-08-30T16:18:06.869Z,4.22
2022-08-30T16:20:33.586Z,3.22
2022-08-30T16:23:00.167Z,4.40
2022-08-30T16:25:40.090Z,2.88
2022-08-30T16:28:08.083Z,3.55
2022-08-30T16:30:36.891Z,6.70
2022-08-30T16:33:03.885Z,4.38
2022-08-30T16:35:32.689Z,2.92
2022-08-30T16:37:59.447Z,3.92
2022-08-30T16:40:26.123Z,2.83
2022-08-30T16:42:52.799Z,4.38
2022-08-30T16:45:20.129Z,3.85
2022-08-30T16:47:46.796Z,4.15
2022-08-30T16:50:16.610Z,6.82
2022-08-30T16:52:44.694Z,3.60
2022-08-30T16:55:11.385Z,5.82
2022-08-30T16:57:39.726Z,5.10
2022-08-30T17:00:13.328Z,3.25
2022-08-30T17:02:42.839Z,3.88
2022-08-30T17:05:22.665Z,3.72
2022-08-30T17:07:50.216Z,3.72
2022-08-30T17:10:20.918Z,5.80
2022-08-30T17:12:50.193Z,3.67
2022-08-30T17:15:19.895Z,4.10
2022-08-30T17:17:48.158Z,3.03
2022-08-30T17:20:16.013Z,2.97
2022-08-30T17:22:42.804Z,4.88
2022-08-30T17:25:13.177Z,3.47
2022-08-30T17:27:39.925Z,3.83
2022-08-30T17:30:09.536Z,3.55
2022-08-30T17:32:36.265Z,3.40
2022-08-30T17:35:04.210Z,4.00
2022-08-30T17:37:33.242Z,8.65
2022-08-30T17:40:00.642Z,4.10
2022-08-30T17:42:29.570Z,6.78
2022-08-30T17:44:56.617Z,5.40
2022-08-30T17:47:23.764Z,3.88
2022-08-30T17:49:51.338Z,6.97
2022-08-30T17:52:17.969Z,3.78
2022-08-30T17:54:44.692Z,3.28
2022-08-30T17:57:13.032Z,3.58
2022-08-30T17:59:40.724Z,6.53
2022-08-30T18:02:07.615Z,2.72
2022-08-30T18:04:39.281Z,3.60
2022-08-30T18:07:09.571Z,5.68
2022-08-30T18:09:39.975Z,3.90
2022-08-30T18:12:07.899Z,4.65
2022-08-30T18:14:34.901Z,5.30
2022-08-30T18:17:06.330Z,6.05
2022-08-30T18:19:33.027Z,5.13
2022-08-30T18:22:03.151Z,5.70
2022-08-30T18:24:30.319Z,3.80
2022-08-30T18:26:58.307Z,4.40
2022-08-30T18:29:29.384Z,4.25
2022-08-30T18:31:59.515Z,4.03
2022-08-30T18:34:26.433Z,4.32
2022-08-30T18:36:53.672Z,3.60
2022-08-30T18:39:21.910Z,2.88
2022-08-30T18:41:50.673Z,11.15
2022-08-30T18:44:28.236Z,4.22
2022-08-30T18:46:57.530Z,4.32
2022-08-30T18:49:25.373Z,7.88
2022-08-30T18:51:52.313Z,4.35
2022-08-30T18:54:19.341Z,5.35
2022-08-30T18:56:46.342Z,5.50
2022-08-30T18:59:13.300Z,4.68
2022-08-30T19:01:40.559Z,3.45
2022-08-30T19:04:07.694Z,2.88
2022-08-30T19:06:34.921Z,34.17
2022-08-30T19:09:08.977Z,19.95
2022-08-30T19:11:38.280Z,51.33
2022-08-30T19:14:05.606Z,39.90
2022-08-30T19:16:35.964Z,27.75
2022-08-30T19:19:04.161Z,13.32
2022-08-30T19:21:30.841Z,8.63
2022-08-30T19:23:58.503Z,31.98
2022-08-30T19:26:27.546Z,34.83
2022-08-30T19:28:54.638Z,39.35
2022-08-30T19:31:21.826Z,28.98
2022-08-30T19:33:48.472Z,20.38
2022-08-30T19:36:15.168Z,35.05
2022-08-30T19:38:44.346Z,45.45
2022-08-30T19:41:12.404Z,40.85
2022-08-30T19:43:40.273Z,19.40
2022-08-30T19:46:07.764Z,21.75
2022-08-30T19:48:39.043Z,16.67
2022-08-30T19:51:11.051Z,8.55
2022-08-30T19:53:40.888Z,9.15
2022-08-30T19:56:08.408Z,5.13
2022-08-30T19:58:35.129Z,5.35
2022-08-30T20:01:12.262Z,6.07
2022-08-30T20:03:51.914Z,6.65
2022-08-30T20:06:19.638Z,5.22
2022-08-30T20:08:47.149Z,6.22
2022-08-30T20:11:19.985Z,5.53
2022-08-30T20:13:47.410Z,7.15
2022-08-30T20:16:14.801Z,3.80
2022-08-30T20:18:43.175Z,11.80
2022-08-30T20:21:13.453Z,5.93
2022-08-30T20:23:41.947Z,2.88
2022-08-30T20:26:11.069Z,21.63
2022-08-30T20:28:38.226Z,35.63
2022-08-30T20:31:07.198Z,28.92
2022-08-30T20:33:39.091Z,12.35
2022-08-30T20:36:08.499Z,7.18
2022-08-30T20:38:35.324Z,4.10
2022-08-30T20:41:10.474Z,3.80
2022-08-30T20:43:37.893Z,7.55
2022-08-30T20:46:17.797Z,4.82
2022-08-30T20:48:46.307Z,3.92
2022-08-30T20:51:16.221Z,24.67
2022-08-30T20:53:43.928Z,10.77
2022-08-30T20:56:18.750Z,5.10
2022-08-30T20:58:46.240Z,29.30
2022-08-30T21:01:14.052Z,10.55
2022-08-30T21:03:41.898Z,6.05
2022-08-30T21:06:08.936Z,4.03
2022-08-30T21:08:35.638Z,8.18
2022-08-30T21:11:02.355Z,5.18
2022-08-30T21:13:29.097Z,3.45
2022-08-30T21:16:00.630Z,5.18
2022-08-30T21:18:32.688Z,5.45
2022-08-30T21:21:21.043Z,6.68
2022-08-30T21:23:49.399Z,4.57
2022-08-30T21:26:17.578Z,4.72
2022-08-30T21:28:50.172Z,30.23
2022-08-30T21:31:20.600Z,67.45
2022-08-30T21:33:49.410Z,60.40
2022-08-30T21:36:36.221Z,45.05
2022-08-30T21:39:04.675Z,13.60
2022-08-30T21:41:31.566Z,8.27
2022-08-30T21:44:00.777Z,4.80
2022-08-30T21:46:28.833Z,4.35
2022-08-30T21:48:59.120Z,5.35
2022-08-30T21:51:25.862Z,3.83
2022-08-30T21:53:52.601Z,4.13
2022-08-30T21:56:22.007Z,3.65
2022-08-30T21:58:49.526Z,11.27
2022-08-30T22:01:25.352Z,4.72
2022-08-30T22:03:53.967Z,3.83
2022-08-30T22:06:21.883Z,5.57
2022-08-30T22:08:52.104Z,4.25
2022-08-30T22:11:22.585Z,4.30
2022-08-30T22:13:50.597Z,3.85
2022-08-30T22:16:19.825Z,4.47
2022-08-30T22:18:46.742Z,6.78
2022-08-30T22:21:18.354Z,4.40
2022-08-30T22:23:45.525Z,3.88
2022-08-30T22:26:14.317Z,3.50
2022-08-30T22:28:41.085Z,3.95
2022-08-30T22:31:09.923Z,4.72
2022-08-30T22:33:37.275Z,21.33
2022-08-30T22:36:13.963Z,34.60
2022-08-30T22:38:41.264Z,27.48
2022-08-30T22:41:13.292Z,34.15
2022-08-30T22:43:40.484Z,7.78
2022-08-30T22:46:08.031Z,4.60
2022-08-30T22:48:35.985Z,5.35
2022-08-30T22:51:02.997Z,21.10
2022-08-30T22:53:29.957Z,13.35
2022-08-30T22:55:56.968Z,6.70
2022-08-30T22:58:23.843Z,5.80
2022-08-30T23:00:55.001Z,24.55
2022-08-30T23:03:22.289Z,49.85
2022-08-30T23:05:49.033Z,13.73
2022-08-30T23:08:15.681Z,8.75
2022-08-30T23:10:44.307Z,7.60
2022-08-30T23:13:11.493Z,3.83
2022-08-30T23:15:38.397Z,3.28
2022-08-30T23:18:05.442Z,9.32
2022-08-30T23:20:32.225Z,4.07
2022-08-30T23:22:58.961Z,5.28
2022-08-30T23:25:52.142Z,3.28
2022-08-30T23:28:39.390Z,3.30
2022-08-30T23:31:29.999Z,3.90
2022-08-30T23:34:16.116Z,3.03
2022-08-30T23:37:01.908Z,4.30
2022-08-30T23:39:47.229Z,7.22
2022-08-30T23:42:32.727Z,3.47
2022-08-30T23:45:18.033Z,3.05
2022-08-30T23:48:03.628Z,4.60
2022-08-30T23:50:49.013Z,8.95
2022-08-30T23:53:34.403Z,4.30
2022-08-30T23:56:19.778Z,4.15
2022-08-30T23:59:05.114Z,3.30
